Terminal Aerodrome Forecast
Issued by NWS Spokane, WA

Home | Current Version | Previous Version | Text Only | Print | Product List | Glossary On
Versions: 1 2 3 4 5 6 7 8 9 10 11 12 13 14 15 16 17 18 19 20 21 22 23 24 25 26 27 28 29 30 31 32 33
000
FTUS46 KOTX 042320
TAFGEG
TAF
KGEG 042320Z 0500/0524 05010KT P6SM SCT060 SCT200
     FM050300 34007KT P6SM VCSH SCT060 BKN100
     FM050800 30009KT P6SM -RA SCT030 BKN060 OVC100
     FM051200 28010KT 4SM RA BR SCT015 BKN025 OVC040
     FM051800 21009KT P6SM -SHRA SCT020 BKN030 OVC050=

USA.gov is the U.S. government's official web portal to all federal, state and local government web resources and services.